createdAt,value
2022-09-27T00:01:55.945Z,15.76
2022-09-27T00:06:57.319Z,15.74
2022-09-27T00:11:58.894Z,15.75
2022-09-27T00:17:00.261Z,15.73
2022-09-27T00:22:01.592Z,15.73
2022-09-27T00:27:02.905Z,15.73
2022-09-27T00:32:04.335Z,15.73
2022-09-27T00:37:06.110Z,15.73
2022-09-27T00:42:11.614Z,15.69
2022-09-27T00:47:16.353Z,15.72
2022-09-27T00:52:38.068Z,15.71
2022-09-27T00:57:39.930Z,15.69
2022-09-27T01:02:44.046Z,15.68
2022-09-27T01:07:45.472Z,15.68
2022-09-27T01:12:54.755Z,15.66
2022-09-27T01:18:08.816Z,15.65
2022-09-27T01:23:28.943Z,15.66
2022-09-27T01:28:33.424Z,15.68
2022-09-27T01:33:43.229Z,15.66
2022-09-27T01:38:47.397Z,15.66
2022-09-27T01:44:06.578Z,15.68
2022-09-27T01:49:17.201Z,15.68
2022-09-27T01:54:21.849Z,15.66
2022-09-27T01:59:47.280Z,15.68
2022-09-27T02:05:11.526Z,15.69
2022-09-27T02:10:17.721Z,15.68
2022-09-27T02:15:26.864Z,15.63
2022-09-27T02:20:54.759Z,15.64
2022-09-27T02:25:57.813Z,15.65
2022-09-27T02:30:59.324Z,15.67
2022-09-27T02:36:05.822Z,15.65
2022-09-27T02:41:17.476Z,15.66
2022-09-27T02:46:31.122Z,15.64
2022-09-27T02:51:51.453Z,15.63
2022-09-27T02:56:58.998Z,15.61
2022-09-27T03:02:38.365Z,15.62
2022-09-27T03:08:07.649Z,15.60
2022-09-27T03:13:09.166Z,15.58
2022-09-27T03:18:11.047Z,15.56
2022-09-27T03:23:50.317Z,15.53
2022-09-27T03:28:51.786Z,15.47
2022-09-27T03:33:53.183Z,15.41
2022-09-27T03:38:54.997Z,15.40
2022-09-27T03:43:57.804Z,15.39
2022-09-27T03:48:59.966Z,15.39
2022-09-27T03:54:01.293Z,15.37
2022-09-27T03:59:03.545Z,15.36
2022-09-27T04:04:14.825Z,15.34
2022-09-27T04:09:16.397Z,15.34
2022-09-27T04:14:34.458Z,15.34
2022-09-27T04:20:03.239Z,15.32
2022-09-27T04:25:05.087Z,15.31
2022-09-27T04:30:12.684Z,15.33
2022-09-27T04:35:58.487Z,15.36
2022-09-27T04:41:01.887Z,15.36
2022-09-27T04:46:07.251Z,15.36
2022-09-27T04:51:09.537Z,15.38
2022-09-27T04:56:11.271Z,15.38
2022-09-27T05:01:12.995Z,15.36
2022-09-27T05:06:32.915Z,15.37
2022-09-27T05:11:40.667Z,15.39
2022-09-27T05:16:50.890Z,15.39
2022-09-27T05:22:11.441Z,15.38
2022-09-27T05:27:18.371Z,15.37
2022-09-27T05:32:19.781Z,15.35
2022-09-27T05:37:26.574Z,15.33
2022-09-27T05:42:28.033Z,15.30
2022-09-27T05:47:29.358Z,15.29
2022-09-27T05:52:30.753Z,15.29
2022-09-27T05:57:34.768Z,15.31
2022-09-27T06:02:39.621Z,15.32
2022-09-27T06:07:49.684Z,15.32
2022-09-27T06:13:05.381Z,15.32
2022-09-27T06:18:16.037Z,15.32
2022-09-27T06:23:20.658Z,15.33
2022-09-27T06:28:23.700Z,15.34
2022-09-27T06:33:29.400Z,15.40
2022-09-27T06:38:33.463Z,15.44
2022-09-27T06:43:47.934Z,15.48
2022-09-27T06:49:07.706Z,15.53
2022-09-27T06:54:09.883Z,15.64
2022-09-27T06:59:30.546Z,15.75
2022-09-27T07:04:58.878Z,15.79
2022-09-27T07:10:12.820Z,15.80
2022-09-27T07:15:15.152Z,15.84
2022-09-27T07:20:17.357Z,15.91
2022-09-27T07:25:20.460Z,16.02
2022-09-27T07:30:22.269Z,16.06
2022-09-27T07:35:25.038Z,16.13
2022-09-27T07:40:26.730Z,16.15
2022-09-27T07:45:28.568Z,16.15
2022-09-27T07:50:41.972Z,16.16
2022-09-27T07:56:14.550Z,16.16
2022-09-27T08:01:16.202Z,16.12
2022-09-27T08:06:18.998Z,16.13
2022-09-27T08:11:21.766Z,16.17
2022-09-27T08:16:24.626Z,16.23
2022-09-27T08:21:44.721Z,16.32
2022-09-27T08:27:11.515Z,16.39
2022-09-27T08:32:28.719Z,16.42
2022-09-27T08:37:30.211Z,16.40
2022-09-27T08:42:39.517Z,16.36
2022-09-27T08:47:44.302Z,16.36
2022-09-27T08:52:48.246Z,16.37
2022-09-27T08:57:59.279Z,16.44
2022-09-27T09:03:02.433Z,16.37
2022-09-27T09:08:21.785Z,16.05
2022-09-27T09:13:40.470Z,15.70
2022-09-27T09:18:43.019Z,15.68
2022-09-27T09:24:14.893Z,15.80
2022-09-27T09:29:23.149Z,15.80
2022-09-27T09:34:40.709Z,15.74
2022-09-27T09:39:48.761Z,15.66
2022-09-27T09:45:26.454Z,15.74
2022-09-27T09:50:35.107Z,15.75
2022-09-27T09:55:38.511Z,15.77
2022-09-27T10:00:40.595Z,15.76
2022-09-27T10:05:43.568Z,16.10
2022-09-27T10:10:45.644Z,16.32
2022-09-27T10:16:17.025Z,16.47
2022-09-27T10:21:20.844Z,16.45
2022-09-27T10:26:22.620Z,16.55
2022-09-27T10:31:34.911Z,16.30
2022-09-27T10:36:45.748Z,15.57
2022-09-27T10:41:47.720Z,15.13
2022-09-27T10:47:10.131Z,14.98
2022-09-27T10:52:21.743Z,15.00
2022-09-27T10:57:24.691Z,15.04
2022-09-27T11:02:33.952Z,15.05
2022-09-27T11:07:52.749Z,14.94
2022-09-27T11:13:33.585Z,14.88
2022-09-27T11:18:55.300Z,14.83
2022-09-27T11:24:11.210Z,14.79
2022-09-27T11:29:22.205Z,14.63
2022-09-27T11:35:32.534Z,14.43
2022-09-27T11:40:34.662Z,14.28
2022-09-27T11:46:13.329Z,14.26
2022-09-27T11:51:22.560Z,14.45
2022-09-27T11:56:24.005Z,14.81
2022-09-27T12:01:25.440Z,14.86
2022-09-27T12:06:38.224Z,14.77
2022-09-27T12:12:04.835Z,14.71
2022-09-27T12:17:11.423Z,14.39
2022-09-27T12:22:15.573Z,14.03
2022-09-27T12:27:23.773Z,14.16
2022-09-27T12:32:28.066Z,14.40
2022-09-27T12:37:48.953Z,14.47
2022-09-27T12:42:59.661Z,14.52
2022-09-27T12:48:22.070Z,14.42
2022-09-27T12:53:29.097Z,14.37
2022-09-27T12:58:52.057Z,14.21
2022-09-27T13:04:23.148Z,14.25
2022-09-27T13:09:55.726Z,14.31
2022-09-27T13:15:13.790Z,14.41
2022-09-27T13:20:27.517Z,14.76
2022-09-27T13:25:50.604Z,14.87
2022-09-27T13:31:10.955Z,14.94
2022-09-27T13:36:16.155Z,15.11
2022-09-27T13:41:19.977Z,15.08
2022-09-27T13:46:31.180Z,14.77
2022-09-27T13:51:40.781Z,14.78
2022-09-27T13:56:47.190Z,14.92
2022-09-27T14:01:52.919Z,14.93
2022-09-27T14:07:01.658Z,14.80
2022-09-27T14:12:10.178Z,14.73
2022-09-27T14:17:13.480Z,14.58
2022-09-27T14:22:17.670Z,14.45
2022-09-27T14:27:37.460Z,14.39
2022-09-27T14:32:52.025Z,14.31
2022-09-27T14:38:15.751Z,14.22
2022-09-27T14:43:23.586Z,14.17
2022-09-27T14:48:32.332Z,14.21
2022-09-27T14:53:36.039Z,14.31
2022-09-27T14:58:47.008Z,14.38
2022-09-27T15:03:49.748Z,14.45
2022-09-27T15:08:51.422Z,14.51
2022-09-27T15:13:53.503Z,14.56
2022-09-27T15:19:03.426Z,14.54
2022-09-27T15:24:05.581Z,14.48
2022-09-27T15:29:16.746Z,14.39
2022-09-27T15:34:18.772Z,14.35
2022-09-27T15:39:26.474Z,14.36
2022-09-27T15:44:45.128Z,14.37
2022-09-27T15:49:46.541Z,14.28
2022-09-27T15:54:49.294Z,14.18
2022-09-27T15:59:50.595Z,14.11
2022-09-27T16:04:52.088Z,14.07
2022-09-27T16:09:55.461Z,13.94
2022-09-27T16:14:56.745Z,13.85
2022-09-27T16:19:58.095Z,13.71
2022-09-27T16:24:59.481Z,13.56
2022-09-27T16:30:01.079Z,13.42
2022-09-27T16:35:03.113Z,13.28
2022-09-27T16:40:05.443Z,13.19
2022-09-27T16:45:10.564Z,13.17
2022-09-27T16:50:32.432Z,13.18
2022-09-27T16:55:35.226Z,13.16
2022-09-27T17:00:36.663Z,13.11
2022-09-27T17:05:38.049Z,13.05
2022-09-27T17:10:43.841Z,13.00
2022-09-27T17:15:45.157Z,12.92
2022-09-27T17:20:46.517Z,12.90
2022-09-27T17:25:49.204Z,12.86
2022-09-27T17:30:52.885Z,12.82
2022-09-27T17:36:01.995Z,12.77
2022-09-27T17:41:04.708Z,12.78
2022-09-27T17:46:07.289Z,12.80
2022-09-27T17:51:11.990Z,12.81
2022-09-27T17:56:14.523Z,12.77
2022-09-27T18:01:16.604Z,12.78
2022-09-27T18:06:17.920Z,12.77
2022-09-27T18:11:27.561Z,12.70
2022-09-27T18:16:32.039Z,12.67
2022-09-27T18:21:33.892Z,12.67
2022-09-27T18:26:39.115Z,12.67
2022-09-27T18:31:43.717Z,12.66
2022-09-27T18:36:48.629Z,12.62
2022-09-27T18:41:49.957Z,12.59
2022-09-27T18:46:51.328Z,12.59
2022-09-27T18:51:52.797Z,12.63
2022-09-27T18:56:54.187Z,12.69
2022-09-27T19:01:56.358Z,12.73
2022-09-27T19:06:59.578Z,12.78
2022-09-27T19:12:01.834Z,12.76
2022-09-27T19:17:04.572Z,12.68
2022-09-27T19:22:05.977Z,12.61
2022-09-27T19:27:07.904Z,12.56
2022-09-27T19:32:11.179Z,12.48
2022-09-27T19:37:12.573Z,12.41
2022-09-27T19:42:14.228Z,12.33
2022-09-27T19:47:16.752Z,12.30
2022-09-27T19:52:19.402Z,12.26
2022-09-27T19:57:20.767Z,12.27
2022-09-27T20:02:22.275Z,12.27
2022-09-27T20:07:23.676Z,12.27
2022-09-27T20:12:25.081Z,12.26
2022-09-27T20:17:26.637Z,12.23
2022-09-27T20:22:27.998Z,12.22
2022-09-27T20:27:29.472Z,12.16
2022-09-27T20:32:31.882Z,12.12
2022-09-27T20:37:33.709Z,12.13
2022-09-27T20:42:35.382Z,12.12
2022-09-27T20:47:39.181Z,12.11
2022-09-27T20:52:41.082Z,12.12
2022-09-27T20:57:57.001Z,12.11
2022-09-27T21:02:59.177Z,12.07
2022-09-27T21:08:00.722Z,12.01
2022-09-27T21:13:02.033Z,11.97
2022-09-27T21:18:03.349Z,11.98
2022-09-27T21:23:04.628Z,11.98
2022-09-27T21:28:05.922Z,11.98
2022-09-27T21:33:07.334Z,11.99
2022-09-27T21:38:08.637Z,11.99
2022-09-27T21:43:10.167Z,12.00
2022-09-27T21:48:11.437Z,12.02
2022-09-27T21:53:12.708Z,12.07
2022-09-27T21:58:13.985Z,12.08
2022-09-27T22:03:15.411Z,12.07
2022-09-27T22:08:18.034Z,12.08
2022-09-27T22:13:19.299Z,12.10
2022-09-27T22:18:20.605Z,12.11
2022-09-27T22:23:21.999Z,12.13
2022-09-27T22:28:23.476Z,12.13
2022-09-27T22:33:24.845Z,12.14
2022-09-27T22:38:26.388Z,12.12
2022-09-27T22:43:30.955Z,12.14
2022-09-27T22:48:32.915Z,12.13
2022-09-27T22:53:34.546Z,12.12
2022-09-27T22:58:36.404Z,12.11
2022-09-27T23:03:37.758Z,12.05
2022-09-27T23:08:39.164Z,12.04
2022-09-27T23:13:41.615Z,12.01
2022-09-27T23:18:43.960Z,11.98
2022-09-27T23:23:45.914Z,12.00
2022-09-27T23:28:51.020Z,12.01
2022-09-27T23:33:52.425Z,12.01
2022-09-27T23:38:54.841Z,12.00
2022-09-27T23:43:56.509Z,12.01
2022-09-27T23:48:58.710Z,12.04
2022-09-27T23:54:00.276Z,12.02
2022-09-27T23:59:01.677Z,12.02
